Last 7 Days

Suisun Valley

Hourly Data | America/Los_Angeles
as of 6/4/20 6:23 AM PDT
Date & Time Temp (°F) RH (%) Dew Pt (°F) Wind Spd (mph) Wind Dir (°) Wind Gust (mph) Latest Rain (In) Daily Rain (In) Daily Min Temp (°F) Daily Max Temp (°F)
6/4/20 - 0600 52.9 78 46.2 0.1 W | 271 3.1 0.00 0.00 52.2 59.5
6/4/20 - 0500 54.2 75 46.5 0.1 NNE | 31 2.1 0.00 0.00 53.5 59.5
6/4/20 - 0400 55.3 72 46.3 0.1 NE | 56 2.1 0.00 0.00 53.9 59.5
6/4/20 - 0300 56.2 68 45.9 0.1 N | 351 2.4 0.00 0.00 55.6 59.5
6/4/20 - 0200 58.7 63 46.0 0.1 NNW | 333 2.7 0.00 0.00 57.2 59.5
6/4/20 - 0100 59.8 58 45.2 0.0 NNW | 345 2.1 0.00 0.00 56.5 100.7
6/4/20 - 0000 64.7 49 45.3 0.0 W | 280 1.7 0.00 0.00 56.5 100.7
6/3/20 - 2300 71.4 38 44.6 1.1 NNW | 337 3.8 0.00 0.00 56.5 100.7
6/3/20 - 2200 77.7 35 48.0 2.5 SW | 222 7.4 0.00 0.00 56.5 100.7
6/3/20 - 2100 84.0 25 44.3 3.3 SW | 219 6.1 0.00 0.00 56.5 100.7
6/3/20 - 2000 92.0 17 40.2 4.4 WSW | 252 10.1 0.00 0.00 56.5 100.7
6/3/20 - 1900 95.9 16 43.0 4.9 WSW | 245 12.5 0.00 0.00 56.5 100.7
6/3/20 - 1800 96.7 19 48.1 7.3 WSW | 244 15.2 0.00 0.00 56.5 100.7
6/3/20 - 1700 98.3 20 50.8 7.0 WSW | 243 13.8 0.00 0.00 56.5 100.7
6/3/20 - 1600 99.8 16 45.1 6.7 SSW | 209 13.8 0.00 0.00 56.5 100.7
6/3/20 - 1500 100.1 18 49.5 5.4 SSW | 199 12.8 0.00 0.00 56.5 100.7
6/3/20 - 1400 98.2 23 54.0 3.6 SE | 128 7.8 0.00 0.00 56.5 100.6
6/3/20 - 1300 95.1 27 55.7 2.9 ESE | 107 7.4 0.00 0.00 56.5 96.5
6/3/20 - 1200 91.5 31 56.4 2.8 SE | 145 8.1 0.00 0.00 56.5 93.5
6/3/20 - 1100 91.1 32 57.4 3.0 SE | 138 7.4 0.00 0.00 56.5 92.2
6/3/20 - 1000 88.5 36 57.8 1.3 SE | 125 4.4 0.00 0.00 56.5 91.9
6/3/20 - 0900 79.3 48 58.1 0.1 NE | 45 2.7 0.00 0.00 56.5 83.5
6/3/20 - 0800 71.0 62 57.3 0.1 NW | 318 2.1 0.00 0.00 56.5 75.2
6/3/20 - 0700 62.1 78 55.0 0.6 NW | 324 3.4 0.00 0.00 56.5 66.8
6/3/20 - 0600 57.1 81 51.3 0.2 NNW | 335 2.1 0.00 0.00 56.5 62.0
6/3/20 - 0500 58.4 79 51.8 0.1 WNW | 294 2.1 0.00 0.00 57.8 62.0
6/3/20 - 0400 59.6 76 52.1 0.1 NNW | 338 2.4 0.00 0.00 58.3 62.0
6/3/20 - 0300 60.6 74 52.3 0.2 WSW | 251 2.7 0.00 0.00 60.0 62.0
6/3/20 - 0200 61.2 72 52.0 0.1 NNE | 27 2.7 0.00 0.00 60.3 62.0
6/3/20 - 0100 62.6 66 51.3 0.1 W | 267 3.1 0.00 0.00 55.2 96.7
6/3/20 - 0000 65.1 63 52.4 0.0 NW | 308 2.1 0.00 0.00 55.2 96.7
6/2/20 - 2300 68.9 56 52.7 0.3 NW | 321 2.4 0.00 0.00 55.2 96.7
6/2/20 - 2200 72.2 50 52.6 0.1 NNW | 332 2.7 0.00 0.00 55.2 96.7
6/2/20 - 2100 81.1 36 51.1 0.8 W | 281 5.1 0.00 0.00 55.2 96.7
6/2/20 - 2000 86.6 28 49.2 9.1 WSW | 244 17.8 0.00 0.00 55.2 96.7
6/2/20 - 1900 90.2 26 50.4 8.2 WSW | 241 15.2 0.00 0.00 55.2 96.7
6/2/20 - 1800 93.1 27 54.0 6.3 WSW | 241 12.5 0.00 0.00 55.2 96.7
6/2/20 - 1700 94.2 27 54.7 6.6 SW | 224 13.5 0.00 0.00 55.2 96.7
6/2/20 - 1600 95.4 26 55.4 5.8 SW | 223 13.2 0.00 0.00 55.2 96.7
6/2/20 - 1500 95.5 27 56.4 4.3 SSE | 156 21.9 0.00 0.00 55.2 96.7
6/2/20 - 1400 94.0 28 56.1 4.3 SSE | 149 10.8 0.00 0.00 55.2 95.5
6/2/20 - 1300 92.2 30 56.7 4.0 SE | 141 8.8 0.00 0.00 55.2 93.4
6/2/20 - 1200 89.1 33 56.3 2.9 SE | 130 9.1 0.00 0.00 55.2 91.2
6/2/20 - 1100 86.8 35 55.7 2.6 SSE | 154 7.1 0.00 0.00 55.2 88.0
6/2/20 - 1000 83.0 40 55.8 1.9 SE | 134 7.1 0.00 0.00 55.2 86.0
6/2/20 - 0900 75.1 52 56.2 0.5 SSE | 147 3.8 0.00 0.00 55.2 79.1
6/2/20 - 0800 67.9 68 56.8 0.3 SSE | 159 2.7 0.00 0.00 55.2 72.0
6/2/20 - 0700 57.9 82 52.5 0.0 NE | 46 2.4 0.00 0.00 55.2 61.9
6/2/20 - 0600 55.6 84 50.7 0.0 SW | 224 2.1 0.00 0.00 55.2 60.6
6/2/20 - 0500 57.1 82 51.5 0.0 WNW | 291 2.1 0.00 0.00 56.3 60.6
6/2/20 - 0400 57.3 80 51.2 0.1 WNW | 301 2.1 0.00 0.00 56.6 60.6
6/2/20 - 0300 58.0 77 50.8 0.0 SW | 230 2.1 0.00 0.00 57.0 60.6
6/2/20 - 0200 59.4 73 50.7 0.0 W | 281 1.7 0.00 0.00 57.7 60.6
6/2/20 - 0100 60.5 71 51.2 0.0 NW | 305 1.7 0.00 0.00 58.0 87.2
6/2/20 - 0000 61.2 68 50.4 0.0 SW | 224 1.7 0.00 0.00 58.0 87.2
6/1/20 - 2300 64.1 62 50.7 0.0 N | 0 0.0 0.00 0.00 58.0 87.2
6/1/20 - 2200 69.8 50 50.0 0.2 WNW | 299 4.1 0.00 0.00 58.0 87.2
6/1/20 - 2100 74.7 38 47.4 4.0 W | 280 17.5 0.00 0.00 58.0 87.2
6/1/20 - 2000 77.6 39 51.0 7.8 WSW | 243 14.8 0.00 0.00 58.0 87.2
6/1/20 - 1900 81.4 39 53.8 6.2 SW | 233 13.5 0.00 0.00 58.0 87.2
6/1/20 - 1800 83.8 37 54.9 6.3 SW | 231 13.8 0.00 0.00 58.0 87.2
6/1/20 - 1700 85.6 33 53.2 6.1 SW | 229 12.8 0.00 0.00 58.0 87.2
6/1/20 - 1600 85.6 33 52.9 4.9 SW | 232 10.5 0.00 0.00 58.0 87.2
6/1/20 - 1500 83.8 35 52.9 5.4 WSW | 238 11.1 0.00 0.00 58.0 85.6
6/1/20 - 1400 81.7 36 52.5 5.7 SW | 236 10.1 0.00 0.00 58.0 83.3
6/1/20 - 1300 78.9 41 53.3 5.8 WSW | 246 11.8 0.00 0.00 58.0 80.6
6/1/20 - 1200 75.8 48 54.9 5.0 SW | 236 10.1 0.00 0.00 58.0 78.2
6/1/20 - 1100 71.9 56 55.2 6.1 SW | 233 12.5 0.00 0.00 58.0 73.5
6/1/20 - 1000 67.9 64 55.1 4.9 SW | 228 10.8 0.00 0.00 58.0 71.6
6/1/20 - 0900 63.6 71 54.0 4.0 WSW | 242 11.8 0.00 0.00 58.0 65.7
6/1/20 - 0800 60.5 77 53.1 1.8 SW | 219 11.1 0.00 0.00 58.0 61.4
6/1/20 - 0700 58.8 79 52.2 1.9 SW | 214 8.4 0.00 0.00 58.0 61.2
6/1/20 - 0600 58.4 80 52.2 0.6 SW | 227 7.1 0.00 0.00 58.0 61.2
6/1/20 - 0500 58.4 79 52.0 2.4 SSW | 195 7.8 0.00 0.00 58.2 61.2
6/1/20 - 0400 59.3 76 51.7 2.1 SSW | 199 5.4 0.00 0.00 58.7 61.2
6/1/20 - 0300 60.6 72 51.6 3.8 SSW | 203 9.1 0.00 0.00 59.0 61.2
6/1/20 - 0200 59.5 75 51.6 4.0 S | 188 8.4 0.00 0.00 59.0 60.7
6/1/20 - 0100 61.6 70 51.6 1.7 SSW | 206 8.4 0.00 0.00 54.4 77.9
6/1/20 - 0000 62.5 68 51.8 0.6 S | 181 5.1 0.00 0.00 54.4 77.9
5/31/20 - 2300 63.8 66 52.2 1.6 SW | 234 7.4 0.00 0.00 54.4 77.9
5/31/20 - 2200 64.6 65 52.4 3.8 WSW | 255 12.5 0.00 0.00 54.4 77.9
5/31/20 - 2100 65.4 63 52.3 8.5 WSW | 237 16.2 0.00 0.00 54.4 77.9
5/31/20 - 2000 68.2 58 52.9 7.8 SW | 230 15.2 0.00 0.00 54.4 77.9
5/31/20 - 1900 71.2 55 54.4 6.0 SW | 230 13.2 0.00 0.00 54.4 77.9
5/31/20 - 1800 72.8 53 54.9 6.2 SW | 229 11.8 0.00 0.00 54.4 77.9
5/31/20 - 1700 74.9 49 54.6 6.6 SW | 227 13.8 0.00 0.00 54.4 77.9
5/31/20 - 1600 76.3 46 54.1 5.5 SW | 226 13.5 0.00 0.00 54.4 77.9
5/31/20 - 1500 74.1 50 54.1 6.3 WSW | 239 13.5 0.00 0.00 54.4 76.0
5/31/20 - 1400 74.5 50 54.9 6.3 SSW | 210 12.5 0.00 0.00 54.4 76.0
5/31/20 - 1300 74.5 50 54.4 6.4 WSW | 243 14.2 0.00 0.00 54.4 76.0
5/31/20 - 1200 72.9 52 54.5 6.3 WSW | 245 12.5 0.00 0.00 54.4 73.9
5/31/20 - 1100 69.7 59 54.8 6.2 SW | 225 11.1 0.00 0.00 54.4 72.5
5/31/20 - 1000 66.8 66 54.8 4.4 WSW | 240 14.2 0.00 0.00 54.4 68.5
5/31/20 - 0900 63.6 74 55.0 5.0 W | 260 12.8 0.00 0.00 54.4 65.0
5/31/20 - 0800 60.5 82 55.0 0.7 NNE | 21 4.1 0.00 0.00 54.4 62.4
5/31/20 - 0700 56.2 90 53.4 0.3 NNW | 334 3.1 0.00 0.00 54.4 60.6
5/31/20 - 0600 55.5 89 52.2 0.2 NW | 317 2.1 0.00 0.00 54.4 60.6
5/31/20 - 0500 57.7 85 53.2 0.5 WSW | 241 5.4 0.00 0.00 56.2 60.6
5/31/20 - 0400 59.8 82 54.4 0.6 WSW | 244 4.8 0.00 0.00 59.2 60.6
5/31/20 - 0300 60.3 81 54.5 2.9 SSW | 211 7.4 0.00 0.00 59.8 60.6
5/31/20 - 0200 60.1 82 54.5 2.0 SSW | 209 6.1 0.00 0.00 59.8 60.6
5/31/20 - 0100 59.8 82 54.2 1.8 SW | 225 7.1 0.00 0.01 59.0 77.3
5/31/20 - 0000 60.6 80 54.3 4.1 SSW | 208 13.2 0.00 0.01 60.0 77.3
5/30/20 - 2300 61.9 78 54.9 2.6 SW | 222 7.1 0.00 0.01 61.2 77.3
5/30/20 - 2200 63.7 74 55.5 5.1 SW | 224 12.1 0.00 0.01 61.4 77.3
5/30/20 - 2100 64.7 72 55.6 7.6 SSW | 212 13.8 0.00 0.01 61.4 77.3
5/30/20 - 2000 67.9 64 55.4 6.7 SW | 217 14.2 0.00 0.01 61.4 77.3
5/30/20 - 1900 70.1 60 55.8 7.1 SW | 226 14.2 0.00 0.01 61.4 77.3
5/30/20 - 1800 70.6 62 57.0 8.4 SSW | 212 16.2 0.00 0.01 61.4 77.3
5/30/20 - 1700 71.0 62 57.4 8.7 SW | 227 17.8 0.00 0.01 61.4 77.3
5/30/20 - 1600 74.4 52 55.6 6.9 SSW | 203 16.5 0.00 0.01 61.4 77.3
5/30/20 - 1500 74.7 47 53.3 2.7 S | 189 9.5 0.00 0.01 61.4 77.2
5/30/20 - 1400 74.9 45 52.3 2.4 SE | 130 10.1 0.00 0.01 61.4 77.2
5/30/20 - 1300 75.3 45 52.8 3.2 ESE | 120 8.8 0.00 0.01 61.4 77.2
5/30/20 - 1200 74.7 48 53.6 3.1 SE | 139 8.8 0.00 0.01 61.4 77.2
5/30/20 - 1100 69.6 62 55.8 2.3 SE | 132 8.8 0.00 0.01 61.4 73.2
5/30/20 - 1000 66.0 75 58.0 1.0 S | 183 4.8 0.00 0.01 61.4 67.5
5/30/20 - 0900 63.1 78 56.1 1.9 S | 189 6.1 0.01 0.01 61.4 64.7
5/30/20 - 0800 63.6 73 54.9 0.9 WSW | 242 6.4 0.00 0.00 61.4 64.7
5/30/20 - 0700 62.3 75 54.3 3.0 WSW | 240 8.4 0.00 0.00 61.4 62.9
5/30/20 - 0600 61.8 74 53.6 3.6 W | 259 9.5 0.00 0.00 61.4 62.2
5/30/20 - 0500 61.7 77 54.3 4.4 W | 263 10.5 0.00 0.00 61.4 62.2
5/30/20 - 0400 61.8 77 54.5 4.1 WSW | 245 9.1 0.00 0.00 61.5 62.2
5/30/20 - 0300 62.0 76 54.4 5.0 WSW | 240 13.2 0.00 0.00 61.5 62.2
5/30/20 - 0200 61.9 75 54.0 5.7 SW | 236 15.2 0.00 0.00 61.5 62.2
5/30/20 - 0100 61.5 75 53.4 5.8 SW | 236 17.2 0.00 0.00 55.2 76.3
5/30/20 - 0000 61.5 75 53.5 6.6 WSW | 241 14.2 0.00 0.00 55.2 76.3
5/29/20 - 2300 61.9 74 53.5 7.5 SW | 236 15.5 0.00 0.00 55.2 76.3
5/29/20 - 2200 62.2 75 54.0 7.5 SW | 227 16.2 0.00 0.00 55.2 76.3
5/29/20 - 2100 63.2 72 54.0 8.8 SW | 224 20.9 0.00 0.00 55.2 76.3
5/29/20 - 2000 67.1 64 54.6 9.6 SW | 231 23.9 0.00 0.00 55.2 76.3
5/29/20 - 1900 69.4 63 56.4 7.9 SSW | 213 18.8 0.00 0.00 55.2 76.3
5/29/20 - 1800 70.3 61 56.3 9.2 SSW | 212 22.9 0.00 0.00 55.2 76.3
5/29/20 - 1700 72.5 56 56.0 10.3 SSW | 207 19.5 0.00 0.00 55.2 76.3
5/29/20 - 1600 74.7 53 56.3 10.1 SW | 214 17.5 0.00 0.00 55.2 76.3
5/29/20 - 1500 74.6 53 56.2 12.3 SW | 231 21.9 0.00 0.00 55.2 76.3
5/29/20 - 1400 74.0 54 56.2 11.7 SW | 225 22.9 0.00 0.00 55.2 75.1
5/29/20 - 1300 72.4 56 55.9 12.0 SW | 220 23.9 0.00 0.00 55.2 73.5
5/29/20 - 1200 72.3 54 54.8 11.7 SW | 228 21.2 0.00 0.00 55.2 73.5
5/29/20 - 1100 68.8 59 54.0 12.1 SW | 230 24.6 0.00 0.00 55.2 73.5
5/29/20 - 1000 68.2 60 53.8 7.4 SW | 228 20.9 0.00 0.00 55.2 70.7
5/29/20 - 0900 64.5 69 54.0 5.1 SW | 226 15.5 0.00 0.00 55.2 68.4
5/29/20 - 0800 63.3 72 54.2 5.1 SSW | 193 15.8 0.00 0.00 55.2 66.6
5/29/20 - 0700 58.7 83 53.4 0.8 NW | 311 4.4 0.00 0.00 55.2 62.3
5/29/20 - 0600 55.8 86 51.6 0.2 NNW | 327 3.4 0.00 0.00 55.2 62.1
5/29/20 - 0500 58.5 80 52.4 1.1 WNW | 284 7.1 0.00 0.00 56.9 62.1
5/29/20 - 0400 59.0 80 52.8 4.8 SSW | 208 15.8 0.00 0.00 57.1 62.1
5/29/20 - 0300 58.4 80 52.4 0.7 WNW | 294 4.1 0.00 0.00 57.6 62.1
5/29/20 - 0200 61.2 73 52.6 4.2 SSW | 209 12.8 0.00 0.00 59.3 62.1
5/29/20 - 0100 62.1 71 52.7 3.9 SSW | 201 12.1 0.00 0.00 54.9 96.2
5/29/20 - 0000 62.8 71 53.4 7.4 SSW | 203 15.5 0.00 0.00 54.9 96.2
5/28/20 - 2300 65.3 67 53.8 8.0 SSW | 210 18.2 0.00 0.00 54.9 96.2
5/28/20 - 2200 72.1 51 53.0 5.1 SW | 215 10.5 0.00 0.00 54.9 96.2
5/28/20 - 2100 77.0 40 51.2 6.3 SW | 234 15.5 0.00 0.00 54.9 96.2
5/28/20 - 2000 81.4 37 52.5 10.7 SW | 234 19.2 0.00 0.00 54.9 96.2
5/28/20 - 1900 86.9 32 53.8 9.5 SW | 236 18.2 0.00 0.00 54.9 96.2
5/28/20 - 1800 90.0 32 56.1 8.7 SW | 236 14.5 0.00 0.00 54.9 96.2
5/28/20 - 1700 93.8 28 54.9 7.3 WSW | 239 14.8 0.00 0.00 54.9 96.2
5/28/20 - 1600 95.3 17 42.6 7.8 WSW | 243 14.5 0.00 0.00 54.9 96.2
5/28/20 - 1500 94.9 12 35.0 8.8 WSW | 244 16.8 0.00 0.00 54.9 95.7
5/28/20 - 1400 94.3 15 38.4 6.7 SW | 235 12.8 0.00 0.00 54.9 95.5
5/28/20 - 1300 92.2 25 50.8 3.9 SSW | 210 9.5 0.00 0.00 54.9 94.1
5/28/20 - 1200 88.0 36 57.7 4.9 SE | 135 10.5 0.00 0.00 54.9 90.0
5/28/20 - 1100 84.3 39 56.7 3.4 SE | 133 7.8 0.00 0.00 54.9 85.7
5/28/20 - 1000 76.9 48 55.5 3.7 SSW | 208 9.8 0.00 0.00 54.9 82.1
5/28/20 - 0900 71.1 58 55.8 3.6 S | 185 11.5 0.00 0.00 54.9 73.0
5/28/20 - 0800 65.3 73 56.4 0.5 S | 188 3.8 0.00 0.00 54.9 68.4
5/28/20 - 0700 57.8 89 54.6 0.2 NW | 316 2.7 0.00 0.00 54.9 64.4
Max 100.1 90 58.1 12.3 - 24.6 0.01 0.01 61.5 100.7
Avg 71.3 57 52.9 4.1 - 10.2 0.00 - - -
Min 52.9 12 35.0 0.0 - 0.0 0.00 0.00 52.2 59.5
Total - - - - - - 0.01 - - -
Tip: Bookmark this page for easy future reference